DLH5692 LKPR-EDDH
Flight info
| Callsign | DLH5692 |
|---|---|
| Flight time | 1h 10m |
| Altitude | 36000 |
| Route | VENOX DCT DEKOV Y621 ESLOR M748 RARUP RARUP6A |
| Aircraft | A20N/M-SDE2E3FGHIRWXY/LB1 |
Departure
| Time | 2026-05-06 17:38 |
|---|---|
| Airport | Václav Havel Airport Prague (LKPR) |
Arrival
| Time | 2026-05-06 18:49 |
|---|---|
| Airport | Hamburg Helmut Schmidt Airport (EDDH) |
| Time | Latitude | Longitude | Altitude | Speed | Heading |
|---|---|---|---|---|---|
| 2026-05-06 17:13 | 50.10997 | 14.26802 | 1174 ft | 0 kts | 57° |
| 2026-05-06 17:26 | 50.10993 | 14.26793 | 1178 ft | 2 kts | 57° |
| 2026-05-06 17:26 | 50.10987 | 14.26777 | 1172 ft | 2 kts | 53° |
| 2026-05-06 17:26 | 50.10980 | 14.26764 | 1172 ft | 2 kts | 45° |
| 2026-05-06 17:27 | 50.10971 | 14.26753 | 1176 ft | 2 kts | 12° |
| 2026-05-06 17:27 | 50.10960 | 14.26752 | 1173 ft | 1 kts | 325° |
| 2026-05-06 17:27 | 50.10959 | 14.26753 | 1173 ft | 0 kts | 324° |
| 2026-05-06 17:30 | 50.10963 | 14.26749 | 1173 ft | 2 kts | 324° |
| 2026-05-06 17:30 | 50.10986 | 14.26724 | 1173 ft | 6 kts | 325° |
| 2026-05-06 17:31 | 50.11036 | 14.26673 | 1171 ft | 10 kts | 328° |
| 2026-05-06 17:31 | 50.11076 | 14.26583 | 1172 ft | 12 kts | 269° |
| 2026-05-06 17:31 | 50.11019 | 14.26484 | 1171 ft | 13 kts | 214° |
| 2026-05-06 17:31 | 50.10940 | 14.26399 | 1170 ft | 15 kts | 215° |
| 2026-05-06 17:32 | 50.10854 | 14.26305 | 1170 ft | 16 kts | 214° |
| 2026-05-06 17:32 | 50.10765 | 14.26211 | 1174 ft | 15 kts | 213° |
| 2026-05-06 17:32 | 50.10682 | 14.26123 | 1177 ft | 14 kts | 214° |
| 2026-05-06 17:32 | 50.10603 | 14.26041 | 1184 ft | 13 kts | 213° |
| 2026-05-06 17:33 | 50.10529 | 14.25975 | 1187 ft | 11 kts | 193° |
| 2026-05-06 17:33 | 50.10474 | 14.26035 | 1190 ft | 10 kts | 127° |
| 2026-05-06 17:33 | 50.10426 | 14.26133 | 1191 ft | 13 kts | 127° |
| 2026-05-06 17:33 | 50.10362 | 14.26265 | 1193 ft | 17 kts | 127° |
| 2026-05-06 17:34 | 50.10289 | 14.26416 | 1195 ft | 18 kts | 127° |
| 2026-05-06 17:34 | 50.10213 | 14.26574 | 1200 ft | 17 kts | 127° |
| 2026-05-06 17:34 | 50.10141 | 14.26721 | 1204 ft | 17 kts | 127° |
| 2026-05-06 17:34 | 50.10071 | 14.26865 | 1208 ft | 16 kts | 127° |
| 2026-05-06 17:35 | 50.10001 | 14.27012 | 1208 ft | 18 kts | 127° |
| 2026-05-06 17:35 | 50.09925 | 14.27171 | 1210 ft | 19 kts | 129° |
| 2026-05-06 17:35 | 50.09850 | 14.27318 | 1211 ft | 14 kts | 131° |
| 2026-05-06 17:36 | 50.09704 | 14.27544 | 1215 ft | 13 kts | 135° |
| 2026-05-06 17:36 | 50.09639 | 14.27636 | 1219 ft | 10 kts | 150° |
| 2026-05-06 17:36 | 50.09588 | 14.27621 | 1223 ft | 6 kts | 214° |
| 2026-05-06 17:36 | 50.09556 | 14.27584 | 1225 ft | 5 kts | 216° |
| 2026-05-06 17:37 | 50.09524 | 14.27548 | 1226 ft | 6 kts | 217° |
| 2026-05-06 17:37 | 50.09479 | 14.27493 | 1225 ft | 11 kts | 218° |
| 2026-05-06 17:37 | 50.09438 | 14.27369 | 1222 ft | 16 kts | 284° |
| 2026-05-06 17:37 | 50.09564 | 14.27098 | 1215 ft | 67 kts | 307° |
| 2026-05-06 17:38 | 50.10018 | 14.26160 | 1189 ft | 146 kts | 307° |
| 2026-05-06 17:38 | 50.10744 | 14.24667 | 1359 ft | 190 kts | 308° |
| 2026-05-06 17:38 | 50.11524 | 14.23047 | 2376 ft | 184 kts | 307° |
| 2026-05-06 17:38 | 50.12322 | 14.21400 | 3174 ft | 198 kts | 306° |
| 2026-05-06 17:39 | 50.13200 | 14.19584 | 3628 ft | 222 kts | 306° |
| 2026-05-06 17:39 | 50.14175 | 14.17562 | 4165 ft | 244 kts | 306° |
| 2026-05-06 17:39 | 50.15244 | 14.15345 | 4702 ft | 266 kts | 305° |
| 2026-05-06 17:39 | 50.16373 | 14.13002 | 5560 ft | 272 kts | 305° |
| 2026-05-06 17:40 | 50.17518 | 14.10627 | 6527 ft | 276 kts | 304° |
| 2026-05-06 17:40 | 50.18676 | 14.08221 | 7444 ft | 279 kts | 304° |
| 2026-05-06 17:40 | 50.20034 | 14.06018 | 8357 ft | 288 kts | 323° |
| 2026-05-06 17:40 | 50.21901 | 14.04812 | 9240 ft | 299 kts | 349° |
| 2026-05-06 17:41 | 50.24007 | 14.04835 | 10048 ft | 309 kts | 5° |
| 2026-05-06 17:41 | 50.26208 | 14.05408 | 10418 ft | 333 kts | 9° |
| 2026-05-06 17:41 | 50.28557 | 14.06161 | 10743 ft | 355 kts | 10° |
| 2026-05-06 17:41 | 50.31001 | 14.06922 | 11461 ft | 361 kts | 9° |
| 2026-05-06 17:42 | 50.33487 | 14.07644 | 12289 ft | 365 kts | 8° |
| 2026-05-06 17:42 | 50.36001 | 14.08333 | 13091 ft | 369 kts | 7° |
| 2026-05-06 17:42 | 50.38549 | 14.09007 | 13850 ft | 374 kts | 7° |
| 2026-05-06 17:42 | 50.41130 | 14.09679 | 14540 ft | 379 kts | 7° |
| 2026-05-06 17:43 | 50.43717 | 14.10350 | 15218 ft | 383 kts | 7° |
| 2026-05-06 17:43 | 50.46363 | 14.11037 | 15918 ft | 388 kts | 7° |
| 2026-05-06 17:43 | 50.49036 | 14.11732 | 16597 ft | 392 kts | 7° |
| 2026-05-06 17:43 | 50.51750 | 14.12440 | 17244 ft | 398 kts | 7° |
| 2026-05-06 17:44 | 50.54491 | 14.13157 | 17927 ft | 402 kts | 7° |
| 2026-05-06 17:44 | 50.57267 | 14.13874 | 18526 ft | 406 kts | 7° |
| 2026-05-06 17:44 | 50.60107 | 14.14557 | 19118 ft | 410 kts | 6° |
| 2026-05-06 17:44 | 50.62906 | 14.15213 | 19684 ft | 414 kts | 6° |
| 2026-05-06 17:45 | 50.65765 | 14.15883 | 20268 ft | 418 kts | 6° |
| 2026-05-06 17:45 | 50.68654 | 14.16567 | 20821 ft | 422 kts | 6° |
| 2026-05-06 17:45 | 50.71570 | 14.17265 | 21438 ft | 425 kts | 6° |
| 2026-05-06 17:45 | 50.74515 | 14.17972 | 21927 ft | 431 kts | 6° |
| 2026-05-06 17:46 | 50.77490 | 14.18688 | 22516 ft | 434 kts | 6° |
| 2026-05-06 17:46 | 50.80490 | 14.19412 | 23067 ft | 438 kts | 6° |
| 2026-05-06 17:46 | 50.83513 | 14.20142 | 23545 ft | 441 kts | 6° |
| 2026-05-06 17:46 | 50.86546 | 14.20875 | 23699 ft | 440 kts | 6° |
| 2026-05-06 17:47 | 50.89584 | 14.21268 | 23736 ft | 437 kts | 358° |
| 2026-05-06 17:47 | 50.92605 | 14.21013 | 23738 ft | 434 kts | 349° |
| 2026-05-06 17:47 | 50.95588 | 14.20339 | 23745 ft | 433 kts | 348° |
| 2026-05-06 17:47 | 50.98573 | 14.19684 | 23742 ft | 432 kts | 349° |
| 2026-05-06 17:48 | 51.01555 | 14.19041 | 23744 ft | 433 kts | 349° |
| 2026-05-06 17:48 | 51.04499 | 14.18156 | 23749 ft | 429 kts | 339° |
| 2026-05-06 17:48 | 51.07234 | 14.16364 | 23748 ft | 423 kts | 327° |
| 2026-05-06 17:48 | 51.09635 | 14.13741 | 23747 ft | 416 kts | 315° |
| 2026-05-06 17:49 | 51.11813 | 14.10713 | 23746 ft | 416 kts | 314° |
| 2026-05-06 17:49 | 51.13995 | 14.07690 | 23747 ft | 416 kts | 314° |
| 2026-05-06 17:49 | 51.16182 | 14.04663 | 23769 ft | 416 kts | 314° |
| 2026-05-06 17:49 | 51.18375 | 14.01622 | 24037 ft | 420 kts | 314° |
| 2026-05-06 17:50 | 51.20576 | 13.98566 | 24614 ft | 420 kts | 314° |
| 2026-05-06 17:50 | 51.22784 | 13.95491 | 25035 ft | 424 kts | 314° |
| 2026-05-06 17:50 | 51.25016 | 13.92379 | 25493 ft | 427 kts | 314° |
| 2026-05-06 17:50 | 51.27257 | 13.89250 | 25946 ft | 429 kts | 314° |
| 2026-05-06 17:51 | 51.29510 | 13.86100 | 26381 ft | 432 kts | 314° |
| 2026-05-06 17:51 | 51.31779 | 13.82920 | 26808 ft | 435 kts | 314° |
| 2026-05-06 17:51 | 51.34057 | 13.79725 | 27219 ft | 437 kts | 314° |
| 2026-05-06 17:51 | 51.36349 | 13.76504 | 27611 ft | 440 kts | 314° |
| 2026-05-06 17:52 | 51.38654 | 13.73262 | 28014 ft | 442 kts | 313° |
| 2026-05-06 17:52 | 51.40940 | 13.70042 | 28399 ft | 444 kts | 313° |
| 2026-05-06 17:52 | 51.43269 | 13.66757 | 28765 ft | 447 kts | 313° |
| 2026-05-06 17:52 | 51.45606 | 13.63455 | 29108 ft | 450 kts | 313° |
| 2026-05-06 17:53 | 51.47961 | 13.60125 | 29454 ft | 452 kts | 313° |
| 2026-05-06 17:53 | 51.50326 | 13.56779 | 29854 ft | 455 kts | 313° |
| 2026-05-06 17:53 | 51.52715 | 13.53389 | 29963 ft | 462 kts | 313° |
| 2026-05-06 17:53 | 51.55127 | 13.49968 | 30301 ft | 463 kts | 313° |
| 2026-05-06 17:54 | 51.57545 | 13.46536 | 30645 ft | 464 kts | 313° |
| 2026-05-06 17:54 | 51.60012 | 13.43164 | 30977 ft | 466 kts | 315° |
| 2026-05-06 17:54 | 51.62485 | 13.39802 | 31392 ft | 464 kts | 313° |
| 2026-05-06 17:54 | 51.64920 | 13.36403 | 31832 ft | 463 kts | 313° |
| 2026-05-06 17:55 | 51.66530 | 13.34165 | 32127 ft | 462 kts | 313° |
| 2026-05-06 17:55 | 51.68970 | 13.30806 | 32560 ft | 460 kts | 314° |
| 2026-05-06 17:55 | 51.71413 | 13.27475 | 32995 ft | 459 kts | 314° |
| 2026-05-06 17:55 | 51.73847 | 13.24168 | 33408 ft | 457 kts | 313° |
| 2026-05-06 17:56 | 51.76278 | 13.20870 | 33807 ft | 456 kts | 313° |
| 2026-05-06 17:56 | 51.78711 | 13.17559 | 34032 ft | 459 kts | 314° |
| 2026-05-06 17:56 | 51.81151 | 13.14237 | 34269 ft | 459 kts | 314° |
| 2026-05-06 17:56 | 51.83596 | 13.10907 | 34563 ft | 458 kts | 314° |
| 2026-05-06 17:57 | 51.86036 | 13.07578 | 34837 ft | 458 kts | 314° |
| 2026-05-06 17:57 | 51.88474 | 13.04246 | 35093 ft | 458 kts | 314° |
| 2026-05-06 17:57 | 51.90902 | 13.00922 | 35345 ft | 457 kts | 314° |
| 2026-05-06 17:57 | 51.93301 | 12.97632 | 35592 ft | 457 kts | 314° |
| 2026-05-06 17:58 | 51.95724 | 12.94304 | 35761 ft | 457 kts | 314° |
| 2026-05-06 17:58 | 51.98098 | 12.91038 | 35791 ft | 456 kts | 314° |
| 2026-05-06 17:58 | 52.02925 | 12.84386 | 35791 ft | 455 kts | 314° |
| 2026-05-06 17:59 | 52.07737 | 12.77729 | 35803 ft | 453 kts | 314° |
| 2026-05-06 17:59 | 52.12515 | 12.71104 | 35792 ft | 451 kts | 314° |
| 2026-05-06 18:00 | 52.17295 | 12.64456 | 35800 ft | 452 kts | 314° |
| 2026-05-06 18:00 | 52.22073 | 12.57793 | 35812 ft | 452 kts | 314° |
| 2026-05-06 18:01 | 52.26852 | 12.51110 | 35812 ft | 452 kts | 314° |
| 2026-05-06 18:01 | 52.31629 | 12.44408 | 35830 ft | 453 kts | 314° |
| 2026-05-06 18:02 | 52.36742 | 12.38458 | 35901 ft | 453 kts | 321° |
| 2026-05-06 18:02 | 52.39191 | 12.35256 | 35794 ft | 449 kts | 311° |
| 2026-05-06 18:02 | 52.41404 | 12.31644 | 35424 ft | 449 kts | 310° |
| 2026-05-06 18:03 | 52.43610 | 12.28020 | 34945 ft | 449 kts | 311° |
| 2026-05-06 18:03 | 52.45869 | 12.24505 | 34469 ft | 447 kts | 313° |
| 2026-05-06 18:03 | 52.48135 | 12.21143 | 34013 ft | 446 kts | 314° |
| 2026-05-06 18:03 | 52.50459 | 12.17787 | 33339 ft | 445 kts | 314° |
| 2026-05-06 18:04 | 52.52798 | 12.14450 | 32504 ft | 447 kts | 314° |
| 2026-05-06 18:04 | 52.55156 | 12.11096 | 31649 ft | 449 kts | 314° |
| 2026-05-06 18:04 | 52.57521 | 12.07728 | 30803 ft | 452 kts | 314° |
| 2026-05-06 18:04 | 52.59896 | 12.04339 | 30084 ft | 451 kts | 313° |
| 2026-05-06 18:05 | 52.62261 | 12.00962 | 29400 ft | 448 kts | 313° |
| 2026-05-06 18:05 | 52.64599 | 11.97616 | 28781 ft | 442 kts | 313° |
| 2026-05-06 18:05 | 52.66910 | 11.94303 | 28138 ft | 439 kts | 313° |
| 2026-05-06 18:05 | 52.69199 | 11.91014 | 27540 ft | 434 kts | 313° |
| 2026-05-06 18:06 | 52.71462 | 11.87757 | 26949 ft | 429 kts | 313° |
| 2026-05-06 18:06 | 52.73694 | 11.84540 | 26370 ft | 425 kts | 313° |
| 2026-05-06 18:06 | 52.75908 | 11.81344 | 25786 ft | 421 kts | 314° |
| 2026-05-06 18:06 | 52.78100 | 11.78175 | 25239 ft | 417 kts | 314° |
| 2026-05-06 18:07 | 52.80270 | 11.75033 | 24687 ft | 412 kts | 314° |
| 2026-05-06 18:07 | 52.82415 | 11.71924 | 24164 ft | 408 kts | 314° |
| 2026-05-06 18:07 | 52.84530 | 11.68855 | 23829 ft | 402 kts | 314° |
| 2026-05-06 18:07 | 52.86633 | 11.65794 | 23314 ft | 402 kts | 314° |
| 2026-05-06 18:08 | 52.88695 | 11.62787 | 22724 ft | 399 kts | 315° |
| 2026-05-06 18:08 | 52.90795 | 11.59725 | 22107 ft | 395 kts | 315° |
| 2026-05-06 18:08 | 52.92824 | 11.56768 | 21516 ft | 392 kts | 315° |
| 2026-05-06 18:08 | 52.94890 | 11.53749 | 20918 ft | 389 kts | 315° |
| 2026-05-06 18:09 | 52.96885 | 11.50833 | 20351 ft | 386 kts | 315° |
| 2026-05-06 18:09 | 52.98891 | 11.47894 | 19788 ft | 383 kts | 315° |
| 2026-05-06 18:09 | 53.00882 | 11.44974 | 19238 ft | 380 kts | 315° |
| 2026-05-06 18:09 | 53.02853 | 11.42080 | 18690 ft | 377 kts | 315° |
| 2026-05-06 18:10 | 53.04813 | 11.39198 | 18150 ft | 375 kts | 315° |
| 2026-05-06 18:10 | 53.06638 | 11.36159 | 17547 ft | 367 kts | 303° |
| 2026-05-06 18:10 | 53.07813 | 11.32478 | 16962 ft | 358 kts | 288° |
| 2026-05-06 18:10 | 53.08608 | 11.28582 | 16391 ft | 354 kts | 284° |
| 2026-05-06 18:11 | 53.09343 | 11.24677 | 15838 ft | 352 kts | 284° |
| 2026-05-06 18:11 | 53.10096 | 11.20820 | 15304 ft | 350 kts | 285° |
| 2026-05-06 18:11 | 53.10878 | 11.17004 | 14774 ft | 347 kts | 286° |
| 2026-05-06 18:11 | 53.11678 | 11.13232 | 14268 ft | 344 kts | 287° |
| 2026-05-06 18:12 | 53.12483 | 11.09491 | 13759 ft | 342 kts | 287° |
| 2026-05-06 18:12 | 53.13286 | 11.05776 | 13206 ft | 340 kts | 287° |
| 2026-05-06 18:12 | 53.14084 | 11.02081 | 12649 ft | 337 kts | 287° |
| 2026-05-06 18:12 | 53.14876 | 10.98411 | 12106 ft | 335 kts | 287° |
| 2026-05-06 18:13 | 53.15661 | 10.94762 | 11563 ft | 333 kts | 287° |
| 2026-05-06 18:13 | 53.16439 | 10.91140 | 11088 ft | 330 kts | 287° |
| 2026-05-06 18:13 | 53.17207 | 10.87558 | 10904 ft | 329 kts | 287° |
| 2026-05-06 18:13 | 53.17973 | 10.83974 | 10702 ft | 328 kts | 287° |
| 2026-05-06 18:14 | 53.18728 | 10.80439 | 10589 ft | 318 kts | 287° |
| 2026-05-06 18:14 | 53.19444 | 10.77085 | 10472 ft | 306 kts | 287° |
| 2026-05-06 18:14 | 53.20141 | 10.73807 | 10343 ft | 294 kts | 287° |
| 2026-05-06 18:14 | 53.20814 | 10.70645 | 10079 ft | 287 kts | 287° |
| 2026-05-06 18:15 | 53.21473 | 10.67525 | 9904 ft | 286 kts | 288° |
| 2026-05-06 18:15 | 53.22141 | 10.64369 | 9858 ft | 289 kts | 288° |
| 2026-05-06 18:15 | 53.22808 | 10.61216 | 9857 ft | 288 kts | 288° |
| 2026-05-06 18:15 | 53.23475 | 10.58064 | 9858 ft | 288 kts | 287° |
| 2026-05-06 18:16 | 53.24140 | 10.54909 | 9853 ft | 288 kts | 287° |
| 2026-05-06 18:16 | 53.24805 | 10.51742 | 9858 ft | 289 kts | 288° |
| 2026-05-06 18:16 | 53.25469 | 10.48580 | 9862 ft | 288 kts | 288° |
| 2026-05-06 18:16 | 53.26133 | 10.45419 | 9863 ft | 288 kts | 287° |
| 2026-05-06 18:17 | 53.26793 | 10.42258 | 9857 ft | 288 kts | 288° |
| 2026-05-06 18:17 | 53.27455 | 10.39099 | 9858 ft | 288 kts | 288° |
| 2026-05-06 18:17 | 53.28119 | 10.35936 | 9846 ft | 289 kts | 288° |
| 2026-05-06 18:17 | 53.28782 | 10.32761 | 9733 ft | 288 kts | 288° |
| 2026-05-06 18:18 | 53.29435 | 10.29611 | 9469 ft | 286 kts | 289° |
| 2026-05-06 18:18 | 53.30082 | 10.26459 | 8766 ft | 289 kts | 290° |
| 2026-05-06 18:18 | 53.30728 | 10.23299 | 8241 ft | 284 kts | 287° |
| 2026-05-06 18:18 | 53.31019 | 10.20041 | 7653 ft | 284 kts | 274° |
| 2026-05-06 18:19 | 53.31121 | 10.16781 | 7201 ft | 285 kts | 274° |
| 2026-05-06 18:19 | 53.31214 | 10.13488 | 6858 ft | 282 kts | 274° |
| 2026-05-06 18:19 | 53.31306 | 10.10232 | 6587 ft | 276 kts | 274° |
| 2026-05-06 18:19 | 53.31390 | 10.07053 | 6265 ft | 273 kts | 274° |
| 2026-05-06 18:20 | 53.31473 | 10.03884 | 5892 ft | 272 kts | 274° |
| 2026-05-06 18:20 | 53.31560 | 10.00727 | 5500 ft | 272 kts | 274° |
| 2026-05-06 18:20 | 53.31647 | 9.97584 | 5196 ft | 268 kts | 274° |
| 2026-05-06 18:20 | 53.31728 | 9.94533 | 5083 ft | 256 kts | 274° |
| 2026-05-06 18:21 | 53.31805 | 9.91617 | 4995 ft | 245 kts | 274° |
| 2026-05-06 18:21 | 53.31881 | 9.88767 | 4991 ft | 249 kts | 274° |
| 2026-05-06 18:21 | 53.31957 | 9.85883 | 4989 ft | 247 kts | 274° |
| 2026-05-06 18:21 | 53.32033 | 9.83017 | 4991 ft | 247 kts | 274° |
| 2026-05-06 18:22 | 53.32103 | 9.80189 | 4990 ft | 246 kts | 274° |
| 2026-05-06 18:22 | 53.32182 | 9.77322 | 4990 ft | 246 kts | 276° |
| 2026-05-06 18:22 | 53.32675 | 9.74690 | 4999 ft | 241 kts | 307° |
| 2026-05-06 18:22 | 53.33730 | 9.72514 | 4992 ft | 241 kts | 314° |
| 2026-05-06 18:23 | 53.34826 | 9.70410 | 4990 ft | 239 kts | 314° |
| 2026-05-06 18:23 | 53.35916 | 9.68306 | 5000 ft | 239 kts | 314° |
| 2026-05-06 18:23 | 53.37002 | 9.66200 | 4966 ft | 238 kts | 314° |
| 2026-05-06 18:23 | 53.38116 | 9.64188 | 4594 ft | 233 kts | 327° |
| 2026-05-06 18:24 | 53.39573 | 9.63167 | 4017 ft | 226 kts | 359° |
| 2026-05-06 18:24 | 53.41083 | 9.63567 | 3508 ft | 219 kts | 23° |
| 2026-05-06 18:24 | 53.42501 | 9.64463 | 3117 ft | 213 kts | 24° |
| 2026-05-06 18:24 | 53.43775 | 9.65516 | 3001 ft | 196 kts | 28° |
| 2026-05-06 18:25 | 53.45051 | 9.66397 | 3000 ft | 200 kts | 24° |
| 2026-05-06 18:25 | 53.46193 | 9.67546 | 3011 ft | 194 kts | 43° |
| 2026-05-06 18:25 | 53.47236 | 9.69004 | 2999 ft | 193 kts | 37° |
| 2026-05-06 18:25 | 53.48329 | 9.70208 | 3007 ft | 186 kts | 35° |
| 2026-05-06 18:26 | 53.49297 | 9.71541 | 2998 ft | 173 kts | 49° |
| 2026-05-06 18:26 | 53.50063 | 9.72979 | 3024 ft | 160 kts | 51° |
| 2026-05-06 18:26 | 53.50800 | 9.74407 | 3011 ft | 161 kts | 51° |
| 2026-05-06 18:26 | 53.51529 | 9.75826 | 3002 ft | 161 kts | 51° |
| 2026-05-06 18:27 | 53.52261 | 9.77258 | 2996 ft | 162 kts | 51° |
| 2026-05-06 18:27 | 53.52996 | 9.78694 | 2860 ft | 163 kts | 51° |
| 2026-05-06 18:27 | 53.53727 | 9.80124 | 2640 ft | 160 kts | 48° |
| 2026-05-06 18:27 | 53.54461 | 9.81533 | 2425 ft | 159 kts | 51° |
| 2026-05-06 18:28 | 53.55184 | 9.82943 | 2205 ft | 159 kts | 51° |
| 2026-05-06 18:28 | 53.55888 | 9.84356 | 1978 ft | 157 kts | 51° |
| 2026-05-06 18:28 | 53.56586 | 9.85763 | 1771 ft | 157 kts | 52° |
| 2026-05-06 18:28 | 53.57279 | 9.87165 | 1555 ft | 154 kts | 51° |
| 2026-05-06 18:29 | 53.57960 | 9.88540 | 1338 ft | 146 kts | 51° |
| 2026-05-06 18:29 | 53.58566 | 9.89765 | 1133 ft | 127 kts | 51° |
| 2026-05-06 18:29 | 53.59118 | 9.90883 | 958 ft | 126 kts | 51° |
| 2026-05-06 18:29 | 53.59668 | 9.91997 | 787 ft | 123 kts | 50° |
| 2026-05-06 18:30 | 53.60223 | 9.93125 | 629 ft | 127 kts | 50° |
| 2026-05-06 18:30 | 53.60785 | 9.94258 | 455 ft | 129 kts | 49° |
| 2026-05-06 18:30 | 53.61362 | 9.95420 | 281 ft | 131 kts | 51° |
| 2026-05-06 18:30 | 53.61940 | 9.96597 | 107 ft | 128 kts | 50° |
| 2026-05-06 18:31 | 53.62563 | 9.97834 | 539 ft | 139 kts | 48° |
| 2026-05-06 18:31 | 53.63190 | 9.98973 | 1392 ft | 127 kts | 48° |
| 2026-05-06 18:31 | 53.63793 | 10.00034 | 2175 ft | 125 kts | 48° |
| 2026-05-06 18:31 | 53.64409 | 10.01105 | 2921 ft | 130 kts | 48° |
| 2026-05-06 18:32 | 53.65079 | 10.02266 | 3542 ft | 146 kts | 48° |
| 2026-05-06 18:32 | 53.65835 | 10.03599 | 3931 ft | 172 kts | 48° |
| 2026-05-06 18:32 | 53.66732 | 10.05207 | 4003 ft | 202 kts | 48° |
| 2026-05-06 18:32 | 53.67716 | 10.06982 | 4004 ft | 208 kts | 48° |
| 2026-05-06 18:33 | 53.68704 | 10.08771 | 4001 ft | 208 kts | 48° |
| 2026-05-06 18:33 | 53.69678 | 10.10531 | 4001 ft | 209 kts | 49° |
| 2026-05-06 18:33 | 53.70341 | 10.12699 | 4004 ft | 208 kts | 81° |
| 2026-05-06 18:33 | 53.70144 | 10.15066 | 4003 ft | 213 kts | 114° |
| 2026-05-06 18:34 | 53.69293 | 10.17148 | 4001 ft | 217 kts | 124° |
| 2026-05-06 18:34 | 53.68370 | 10.19158 | 4001 ft | 217 kts | 124° |
| 2026-05-06 18:34 | 53.67446 | 10.21170 | 4002 ft | 217 kts | 124° |
| 2026-05-06 18:34 | 53.66500 | 10.23236 | 4003 ft | 226 kts | 124° |
| 2026-05-06 18:35 | 53.65539 | 10.25331 | 4002 ft | 225 kts | 124° |
| 2026-05-06 18:35 | 53.64574 | 10.27421 | 4002 ft | 226 kts | 126° |
| 2026-05-06 18:35 | 53.63296 | 10.28981 | 4004 ft | 234 kts | 158° |
| 2026-05-06 18:35 | 53.61661 | 10.29192 | 4004 ft | 242 kts | 189° |
| 2026-05-06 18:36 | 53.60155 | 10.27933 | 4004 ft | 248 kts | 222° |
| 2026-05-06 18:36 | 53.59067 | 10.25670 | 3999 ft | 249 kts | 234° |
| 2026-05-06 18:36 | 53.58064 | 10.23312 | 4001 ft | 247 kts | 234° |
| 2026-05-06 18:36 | 53.57060 | 10.20947 | 4002 ft | 248 kts | 234° |
| 2026-05-06 18:37 | 53.56058 | 10.18588 | 4010 ft | 248 kts | 234° |
| 2026-05-06 18:37 | 53.55397 | 10.17027 | 4002 ft | 247 kts | 234° |
| 2026-05-06 18:37 | 53.54065 | 10.13878 | 4000 ft | 247 kts | 234° |
| 2026-05-06 18:37 | 53.53071 | 10.11524 | 4002 ft | 248 kts | 234° |
| 2026-05-06 18:38 | 53.52075 | 10.09164 | 4003 ft | 247 kts | 234° |
| 2026-05-06 18:38 | 53.51079 | 10.06816 | 4000 ft | 247 kts | 234° |
| 2026-05-06 18:38 | 53.50085 | 10.04464 | 4001 ft | 247 kts | 234° |
| 2026-05-06 18:38 | 53.49087 | 10.02111 | 4000 ft | 247 kts | 234° |
| 2026-05-06 18:39 | 53.48087 | 9.99759 | 4001 ft | 247 kts | 234° |
| 2026-05-06 18:39 | 53.47089 | 9.97412 | 4000 ft | 247 kts | 234° |
| 2026-05-06 18:39 | 53.46092 | 9.95066 | 4001 ft | 246 kts | 234° |
| 2026-05-06 18:40 | 53.44111 | 9.90418 | 4000 ft | 247 kts | 234° |
| 2026-05-06 18:40 | 53.43115 | 9.88077 | 4000 ft | 246 kts | 234° |
| 2026-05-06 18:40 | 53.42117 | 9.85732 | 3998 ft | 247 kts | 234° |
| 2026-05-06 18:40 | 53.41119 | 9.83388 | 3997 ft | 247 kts | 234° |
| 2026-05-06 18:41 | 53.40121 | 9.81044 | 3998 ft | 247 kts | 234° |
| 2026-05-06 18:41 | 53.39175 | 9.78652 | 3994 ft | 246 kts | 246° |
| 2026-05-06 18:41 | 53.38880 | 9.75866 | 3999 ft | 245 kts | 278° |
| 2026-05-06 18:41 | 53.39456 | 9.73258 | 4001 ft | 239 kts | 310° |
| 2026-05-06 18:42 | 53.40510 | 9.71118 | 4000 ft | 238 kts | 314° |
| 2026-05-06 18:42 | 53.41640 | 9.69127 | 3948 ft | 232 kts | 328° |
| 2026-05-06 18:42 | 53.43101 | 9.68188 | 3634 ft | 224 kts | 0° |
| 2026-05-06 18:42 | 53.44594 | 9.68653 | 3260 ft | 218 kts | 23° |
| 2026-05-06 18:43 | 53.45997 | 9.69558 | 3034 ft | 216 kts | 24° |
| 2026-05-06 18:43 | 53.47390 | 9.70469 | 3003 ft | 218 kts | 26° |
| 2026-05-06 18:43 | 53.48612 | 9.71893 | 3002 ft | 215 kts | 44° |
| 2026-05-06 18:43 | 53.49673 | 9.73619 | 2998 ft | 205 kts | 47° |
| 2026-05-06 18:44 | 53.50672 | 9.75204 | 2997 ft | 190 kts | 42° |
| 2026-05-06 18:44 | 53.51641 | 9.76568 | 2992 ft | 174 kts | 42° |
| 2026-05-06 18:44 | 53.52525 | 9.77797 | 3018 ft | 162 kts | 42° |
| 2026-05-06 18:44 | 53.53318 | 9.79132 | 2832 ft | 154 kts | 51° |
| 2026-05-06 18:45 | 53.53751 | 9.80017 | 2667 ft | 141 kts | 53° |
| 2026-05-06 18:45 | 53.54337 | 9.81216 | 2472 ft | 125 kts | 52° |
| 2026-05-06 18:45 | 53.54890 | 9.82337 | 2294 ft | 125 kts | 52° |
| 2026-05-06 18:45 | 53.55442 | 9.83451 | 2121 ft | 123 kts | 51° |
| 2026-05-06 18:46 | 53.55986 | 9.84550 | 1949 ft | 121 kts | 52° |
| 2026-05-06 18:46 | 53.56524 | 9.85637 | 1786 ft | 120 kts | 52° |
| 2026-05-06 18:46 | 53.57061 | 9.86723 | 1619 ft | 121 kts | 51° |
| 2026-05-06 18:46 | 53.57597 | 9.87807 | 1455 ft | 120 kts | 52° |
| 2026-05-06 18:47 | 53.58135 | 9.88895 | 1295 ft | 122 kts | 51° |
| 2026-05-06 18:47 | 53.58681 | 9.89998 | 1101 ft | 123 kts | 51° |
| 2026-05-06 18:47 | 53.59223 | 9.91096 | 934 ft | 123 kts | 51° |
| 2026-05-06 18:47 | 53.59753 | 9.92210 | 730 ft | 124 kts | 51° |
| 2026-05-06 18:48 | 53.60307 | 9.93320 | 542 ft | 123 kts | 49° |
| 2026-05-06 18:48 | 53.60860 | 9.94417 | 366 ft | 127 kts | 49° |
| 2026-05-06 18:48 | 53.61421 | 9.95556 | 226 ft | 126 kts | 50° |
| 2026-05-06 18:48 | 53.61985 | 9.96711 | 89 ft | 125 kts | 50° |
| 2026-05-06 18:49 | 53.62477 | 9.97692 | 46 ft | 68 kts | 50° |
| 2026-05-06 18:49 | 53.62716 | 9.98173 | 50 ft | 48 kts | 50° |
| 2026-05-06 18:49 | 53.62923 | 9.98591 | 48 ft | 45 kts | 50° |
| 2026-05-06 18:49 | 53.63074 | 9.98940 | 48 ft | 21 kts | 69° |
| 2026-05-06 18:50 | 53.63089 | 9.99180 | 50 ft | 16 kts | 94° |
| 2026-05-06 18:50 | 53.63087 | 9.99215 | 50 ft | 0 kts | 94° |
| 2026-05-06 18:50 | 53.63085 | 9.99259 | 50 ft | 8 kts | 94° |
| 2026-05-06 18:50 | 53.63090 | 9.99354 | 50 ft | 0 kts | 73° |
| 2026-05-06 18:52 | 53.63095 | 9.99379 | 50 ft | 6 kts | 67° |
| 2026-05-06 18:52 | 53.63140 | 9.99502 | 49 ft | 18 kts | 55° |
| 2026-05-06 18:52 | 53.63211 | 9.99648 | 50 ft | 0 kts | 50° |
| 2026-05-06 18:52 | 53.63213 | 9.99650 | 50 ft | 0 kts | 50° |
| 2026-05-06 18:53 | 53.63217 | 9.99659 | 50 ft | 4 kts | 49° |
| 2026-05-06 18:53 | 53.63259 | 9.99730 | 50 ft | 11 kts | 45° |
| 2026-05-06 18:53 | 53.63318 | 9.99845 | 50 ft | 15 kts | 50° |
| 2026-05-06 18:53 | 53.63385 | 9.99979 | 50 ft | 16 kts | 49° |
| 2026-05-06 18:54 | 53.63425 | 10.00133 | 50 ft | 14 kts | 104° |
| 2026-05-06 18:54 | 53.63376 | 10.00234 | 48 ft | 12 kts | 126° |
| 2026-05-06 18:54 | 53.63373 | 10.00328 | 50 ft | 4 kts | 85° |
| 2026-05-06 18:54 | 53.63373 | 10.00330 | 50 ft | 0 kts | 85° |